MSC Cordoba — A8OF8 — position and weather

sailwx.info

Track history (hours):
 
Tides and Currents Weather Stations Pressure Air Temp Water Temp Dewpoint Dewpoint Depression Visibility Wind Speed Wind Dir Waves Ship Positions

MSC Cordoba

Last reported at 2014-Dec-21 00:31 UTC. Time now 2014-Dec-21 23:56 UTC.
Position N 39°50' E 025°47'.

Length 275 m; draft 10.9 m.

Type: Ship (hazmat cat A). MMSI: 636091473.

Date/timePositionNaut miles runAvg speedWind from/ knotsBaromVisibWave heightAir tempDewpointWater temp
2014-Dec-21 00:31N 39°50' E 025°47'14716.3
2014-Dec-20 15:30N 37°36' E 024°27'1717.5
2014-Dec-20 14:33N 37°23' E 024°15'3817.9
2014-Dec-20 12:25N 36°55' E 023°43'2117.8
2014-Dec-20 11:16N 36°38' E 023°27'42318.5
2014-Dec-19 12:20N 36°28' E 014°41'1519.7
2014-Dec-19 11:33N 36°32' E 014°22'1919.2
2014-Dec-19 10:33N 36°37' E 013°59'1716.8
2014-Dec-19 09:33N 36°42' E 013°39'9 9.1
2014-Dec-19 08:32N 36°45' E 013°28'3 2.4
2014-Dec-19 07:26N 36°46' E 013°25'91020.3
2014-Dec-17 10:34N 35°58' W 005°23'26318.3
2014-Dec-16 20:14N 38°21' W 009°59'1821.8
2014-Dec-16 19:24N 38°38' W 010°05'2321.6
2014-Dec-16 18:21N 39°01' W 010°07'79919.0
2014-Dec-15 00:16N 50°26' W 000°30'1815.4
2014-Dec-14 23:08N 50°30' W 000°03'1316.0
2014-Dec-14 22:20N 50°33' E 000°17'1316.5
2014-Dec-14 21:32N 50°36' E 000°37'1717.1
2014-Dec-14 20:34N 50°48' E 000°56'1816.4
2014-Dec-14 19:29N 50°59' E 001°18'1415.1
2014-Dec-14 18:33N 51°07' E 001°35'1515.0
2014-Dec-14 17:33N 51°18' E 001°52'1412.7
2014-Dec-14 16:29N 51°22' E 002°13'1415.1
2014-Dec-14 15:33N 51°23' E 002°36'1010.1
2014-Dec-14 14:33N 51°22' E 002°52'1414.0
2014-Dec-14 13:33N 51°25' E 003°14'1413.9
2014-Dec-14 12:33N 51°26' E 003°36'1110.9
2014-Dec-14 11:34N 51°21' E 003°52'10 9.6
2014-Dec-14 10:33N 51°22' E 004°07'6 6.5
2014-Dec-14 09:33N 51°21' E 004°17'0 0.0
2014-Dec-14 08:33N 51°21' E 004°17'2 2.3
2014-Dec-14 07:33N 51°20' E 004°20'0 0.2
2014-Dec-14 06:32N 51°20' E 004°21'0 0.0
2014-Dec-14 05:28N 51°20' E 004°21'0 0.0
2014-Dec-14 04:31N 51°20' E 004°21'0 0.0
2014-Dec-14 03:33N 51°20' E 004°21'0 0.0
2014-Dec-14 02:30N 51°20' E 004°21'0 0.0
2014-Dec-14 01:33N 51°20' E 004°21'0 0.0
2014-Dec-14 00:32N 51°20' E 004°21'0 0.0
2014-Dec-13 23:32N 51°20' E 004°21'0 0.0
2014-Dec-13 22:28N 51°20' E 004°21'0 0.0
2014-Dec-13 21:28N 51°20' E 004°21'0 0.0
2014-Dec-13 20:21N 51°20' E 004°21'0 0.0
2014-Dec-13 19:21N 51°20' E 004°21'0 0.0
2014-Dec-13 18:30N 51°20' E 004°21'0 0.0
2014-Dec-13 17:29N 51°20' E 004°21'0 0.0
2014-Dec-13 16:32N 51°20' E 004°21'0 0.0
2014-Dec-13 15:31N 51°20' E 004°21'0 0.0
2014-Dec-13 14:28N 51°20' E 004°21'0 0.0
2014-Dec-13 13:30N 51°20' E 004°21'0 0.0
2014-Dec-13 12:33N 51°20' E 004°21'0 0.0
2014-Dec-13 11:33N 51°20' E 004°21'0 0.0
2014-Dec-13 10:29N 51°20' E 004°21'0 0.0
2014-Dec-13 09:32N 51°20' E 004°21'0 0.0
2014-Dec-13 08:31N 51°20' E 004°21'0 0.0
2014-Dec-13 07:28N 51°20' E 004°21'0 0.0
2014-Dec-13 06:21N 51°20' E 004°21'0 0.0
2014-Dec-13 05:33N 51°20' E 004°21'0 0.0
2014-Dec-13 04:33N 51°20' E 004°21'0 0.0
2014-Dec-13 03:32N 51°20' E 004°21'0 0.0
2014-Dec-13 02:32N 51°20' E 004°21'0 0.0
2014-Dec-13 01:33N 51°20' E 004°21'0 0.0
2014-Dec-12 23:26N 51°20' E 004°21'0 0.0
2014-Dec-12 22:26N 51°20' E 004°21'0 0.0
2014-Dec-12 21:25N 51°20' E 004°21'0 0.0
2014-Dec-12 20:31N 51°20' E 004°21'0 0.0
2014-Dec-12 19:24N 51°20' E 004°21'0 0.0
2014-Dec-12 18:33N 51°20' E 004°21'0 0.0
2014-Dec-12 17:23N 51°20' E 004°21'1 1.5
2014-Dec-12 16:33N 51°20' E 004°18'1 1.4
2014-Dec-12 15:34N 51°21' E 004°17'2 2.1
2014-Dec-12 14:33N 51°21' E 004°14'8 8.1
2014-Dec-12 13:33N 51°24' E 004°02'10 9.5
2014-Dec-12 12:33N 51°21' E 003°48'9 9.4
2014-Dec-12 11:33N 51°26' E 003°34'1313.3
2014-Dec-12 10:33N 51°24' E 003°13'1414.0
2014-Dec-12 09:33N 51°22' E 002°51'1211.4
2014-Dec-12 08:33N 51°22' E 002°32'1514.7
2014-Dec-12 07:34N 51°19' E 002°10'1211.8
2014-Dec-12 06:33N 51°26' E 001°56'1211.6
2014-Dec-12 05:33N 51°36' E 001°46'1111.5
2014-Dec-12 04:33N 51°48' E 001°44'1110.8
2014-Dec-12 03:34N 51°56' E 001°33'9 8.9
2014-Dec-12 02:31N 51°57' E 001°18'0 0.0
2014-Dec-12 01:31N 51°57' E 001°18'0 0.0
2014-Dec-12 00:31N 51°57' E 001°18'0 0.0
2014-Dec-11 23:33N 51°57' E 001°18'0 0.0
2014-Dec-11 22:33N 51°57' E 001°18'0 0.0
2014-Dec-11 21:32N 51°57' E 001°18'0 0.0
2014-Dec-11 20:32N 51°57' E 001°18'0 0.0
2014-Dec-11 19:31N 51°57' E 001°18'0 0.0
2014-Dec-11 18:31N 51°57' E 001°18'0 0.0
2014-Dec-11 17:31N 51°57' E 001°18'0 0.0
2014-Dec-11 16:33N 51°57' E 001°18'0 0.0
2014-Dec-11 15:33N 51°57' E 001°18'0 0.0
2014-Dec-11 14:32N 51°57' E 001°18'0 0.0
2014-Dec-11 13:32N 51°57' E 001°18'0 0.0
2014-Dec-11 12:31N 51°57' E 001°18'0 0.0
2014-Dec-11 11:25N 51°57' E 001°18'0 0.0
2014-Dec-11 10:31N 51°57' E 001°18'0 0.2
2014-Dec-11 09:33N 51°57' E 001°18'9 8.6
2014-Dec-11 08:33N 51°56' E 001°32'8 7.7
2014-Dec-11 07:33N 51°52' E 001°42'3 2.9
2014-Dec-11 06:33N 51°55' E 001°42'0 0.0
2014-Dec-11 05:33N 51°55' E 001°42'0 0.0
2014-Dec-11 04:32N 51°55' E 001°42'0 0.0
2014-Dec-11 03:32N 51°55' E 001°42'0 0.1
2014-Dec-11 02:31N 51°55' E 001°42'0 0.1
2014-Dec-11 01:31N 51°55' E 001°42'4 4.7
2014-Dec-11 00:34N 51°52' E 001°47'  
Track history (hours):
 
Tides and Currents Weather Stations Pressure Air Temp Water Temp Dewpoint Dewpoint Depression Visibility Wind Speed Wind Dir Waves Ship Positions

MSC Cordoba

Last reported at 2014-Dec-21 00:31 UTC. Time now 2014-Dec-21 23:56 UTC.
Position N 39°50' E 025°47'.

Length 275 m; draft 10.9 m.

Type: Ship (hazmat cat A). MMSI: 636091473.

Date/timePositionNaut miles runAvg speedWind from/ knotsBaromVisibWave heightAir tempDewpointWater temp
2014-Dec-21 00:31N 39°50' E 025°47'14716.3
2014-Dec-20 15:30N 37°36' E 024°27'1717.5
2014-Dec-20 14:33N 37°23' E 024°15'3817.9
2014-Dec-20 12:25N 36°55' E 023°43'2117.8
2014-Dec-20 11:16N 36°38' E 023°27'42318.5
2014-Dec-19 12:20N 36°28' E 014°41'1519.7
2014-Dec-19 11:33N 36°32' E 014°22'1919.2
2014-Dec-19 10:33N 36°37' E 013°59'1716.8
2014-Dec-19 09:33N 36°42' E 013°39'9 9.1
2014-Dec-19 08:32N 36°45' E 013°28'3 2.4
2014-Dec-19 07:26N 36°46' E 013°25'91020.3
2014-Dec-17 10:34N 35°58' W 005°23'26318.3
2014-Dec-16 20:14N 38°21' W 009°59'1821.8
2014-Dec-16 19:24N 38°38' W 010°05'2321.6
2014-Dec-16 18:21N 39°01' W 010°07'79919.0
2014-Dec-15 00:16N 50°26' W 000°30'1815.4
2014-Dec-14 23:08N 50°30' W 000°03'1316.0
2014-Dec-14 22:20N 50°33' E 000°17'1316.5
2014-Dec-14 21:32N 50°36' E 000°37'1717.1
2014-Dec-14 20:34N 50°48' E 000°56'1816.4
2014-Dec-14 19:29N 50°59' E 001°18'1415.1
2014-Dec-14 18:33N 51°07' E 001°35'1515.0
2014-Dec-14 17:33N 51°18' E 001°52'1412.7
2014-Dec-14 16:29N 51°22' E 002°13'1415.1
2014-Dec-14 15:33N 51°23' E 002°36'1010.1
2014-Dec-14 14:33N 51°22' E 002°52'1414.0
2014-Dec-14 13:33N 51°25' E 003°14'1413.9
2014-Dec-14 12:33N 51°26' E 003°36'1110.9
2014-Dec-14 11:34N 51°21' E 003°52'10 9.6
2014-Dec-14 10:33N 51°22' E 004°07'6 6.5
2014-Dec-14 09:33N 51°21' E 004°17'0 0.0
2014-Dec-14 08:33N 51°21' E 004°17'2 2.3
2014-Dec-14 07:33N 51°20' E 004°20'0 0.2
2014-Dec-14 06:32N 51°20' E 004°21'0 0.0
2014-Dec-14 05:28N 51°20' E 004°21'0 0.0
2014-Dec-14 04:31N 51°20' E 004°21'0 0.0
2014-Dec-14 03:33N 51°20' E 004°21'0 0.0
2014-Dec-14 02:30N 51°20' E 004°21'0 0.0
2014-Dec-14 01:33N 51°20' E 004°21'0 0.0
2014-Dec-14 00:32N 51°20' E 004°21'0 0.0
2014-Dec-13 23:32N 51°20' E 004°21'0 0.0
2014-Dec-13 22:28N 51°20' E 004°21'0 0.0
2014-Dec-13 21:28N 51°20' E 004°21'0 0.0
2014-Dec-13 20:21N 51°20' E 004°21'0 0.0
2014-Dec-13 19:21N 51°20' E 004°21'0 0.0
2014-Dec-13 18:30N 51°20' E 004°21'0 0.0
2014-Dec-13 17:29N 51°20' E 004°21'0 0.0
2014-Dec-13 16:32N 51°20' E 004°21'0 0.0
2014-Dec-13 15:31N 51°20' E 004°21'0 0.0
2014-Dec-13 14:28N 51°20' E 004°21'0 0.0
2014-Dec-13 13:30N 51°20' E 004°21'0 0.0
2014-Dec-13 12:33N 51°20' E 004°21'0 0.0
2014-Dec-13 11:33N 51°20' E 004°21'0 0.0
2014-Dec-13 10:29N 51°20' E 004°21'0 0.0
2014-Dec-13 09:32N 51°20' E 004°21'0 0.0
2014-Dec-13 08:31N 51°20' E 004°21'0 0.0
2014-Dec-13 07:28N 51°20' E 004°21'0 0.0
2014-Dec-13 06:21N 51°20' E 004°21'0 0.0
2014-Dec-13 05:33N 51°20' E 004°21'0 0.0
2014-Dec-13 04:33N 51°20' E 004°21'0 0.0
2014-Dec-13 03:32N 51°20' E 004°21'0 0.0
2014-Dec-13 02:32N 51°20' E 004°21'0 0.0
2014-Dec-13 01:33N 51°20' E 004°21'0 0.0
2014-Dec-12 23:26N 51°20' E 004°21'0 0.0
2014-Dec-12 22:26N 51°20' E 004°21'0 0.0
2014-Dec-12 21:25N 51°20' E 004°21'0 0.0
2014-Dec-12 20:31N 51°20' E 004°21'0 0.0
2014-Dec-12 19:24N 51°20' E 004°21'0 0.0
2014-Dec-12 18:33N 51°20' E 004°21'0 0.0
2014-Dec-12 17:23N 51°20' E 004°21'1 1.5
2014-Dec-12 16:33N 51°20' E 004°18'1 1.4
2014-Dec-12 15:34N 51°21' E 004°17'2 2.1
2014-Dec-12 14:33N 51°21' E 004°14'8 8.1
2014-Dec-12 13:33N 51°24' E 004°02'10 9.5
2014-Dec-12 12:33N 51°21' E 003°48'9 9.4
2014-Dec-12 11:33N 51°26' E 003°34'1313.3
2014-Dec-12 10:33N 51°24' E 003°13'1414.0
2014-Dec-12 09:33N 51°22' E 002°51'1211.4
2014-Dec-12 08:33N 51°22' E 002°32'1514.7
2014-Dec-12 07:34N 51°19' E 002°10'1211.8
2014-Dec-12 06:33N 51°26' E 001°56'1211.6
2014-Dec-12 05:33N 51°36' E 001°46'1111.5
2014-Dec-12 04:33N 51°48' E 001°44'1110.8
2014-Dec-12 03:34N 51°56' E 001°33'9 8.9
2014-Dec-12 02:31N 51°57' E 001°18'0 0.0
2014-Dec-12 01:31N 51°57' E 001°18'0 0.0
2014-Dec-12 00:31N 51°57' E 001°18'0 0.0
2014-Dec-11 23:33N 51°57' E 001°18'0 0.0
2014-Dec-11 22:33N 51°57' E 001°18'0 0.0
2014-Dec-11 21:32N 51°57' E 001°18'0 0.0
2014-Dec-11 20:32N 51°57' E 001°18'0 0.0
2014-Dec-11 19:31N 51°57' E 001°18'0 0.0
2014-Dec-11 18:31N 51°57' E 001°18'0 0.0
2014-Dec-11 17:31N 51°57' E 001°18'0 0.0
2014-Dec-11 16:33N 51°57' E 001°18'0 0.0
2014-Dec-11 15:33N 51°57' E 001°18'0 0.0
2014-Dec-11 14:32N 51°57' E 001°18'0 0.0
2014-Dec-11 13:32N 51°57' E 001°18'0 0.0
2014-Dec-11 12:31N 51°57' E 001°18'0 0.0
2014-Dec-11 11:25N 51°57' E 001°18'0 0.0
2014-Dec-11 10:31N 51°57' E 001°18'0 0.2
2014-Dec-11 09:33N 51°57' E 001°18'9 8.6
2014-Dec-11 08:33N 51°56' E 001°32'8 7.7
2014-Dec-11 07:33N 51°52' E 001°42'3 2.9
2014-Dec-11 06:33N 51°55' E 001°42'0 0.0
2014-Dec-11 05:33N 51°55' E 001°42'0 0.0
2014-Dec-11 04:32N 51°55' E 001°42'0 0.0
2014-Dec-11 03:32N 51°55' E 001°42'0 0.1
2014-Dec-11 02:31N 51°55' E 001°42'0 0.1
2014-Dec-11 01:31N 51°55' E 001°42'4 4.7
2014-Dec-11 00:34N 51°52' E 001°47'  

Dump ship's entire track history